Latest Weather Observations for Proserpine

IDQ60801

Issued at 8:02 pm EST Wednesday 28 September 2016 (issued every 30 minutes, with the page automatically refreshed every 10 minutes)

About weather observations | Map of weather stations | Latest weather observations for QLD | Other Formats
Station Details ID: 033247 Name: PROSERPINE AIRPORT Lat: -20.49 Lon: 148.56 Height: 19.7 m
Data from the previous 72 hours. | See also: Recent months at Proserpine
Date/Time
EST
Temp
°C
App
Temp
°C
Dew
Point
°C
Rel
Hum
%
Delta-T
°C
Wind Press
QNH
hPa
Press
MSL
hPa
Rain since
9am
mm
Dir  Spd
km/h
Gust
km/h
Spd
kts
Gust
kts
28/08:00pm 19.8 19.9 14.4 71 3.1 S 7 7 4 4 1013.2 1013.2 0.0
28/07:30pm 20.5 20.7 14.8 70 3.3 SSE 7 9 4 5 1013.1 1013.1 0.0
28/07:00pm 20.9 20.6 14.3 66 3.8 ESE 9 11 5 6 1012.8 1012.8 0.0
28/06:30pm 21.5 20.8 14.2 63 4.3 ESE 11 15 6 8 1012.5 1012.5 0.0
28/06:00pm 22.5 21.3 14.1 59 4.9 SE 13 17 7 9 1012.1 1012.1 0.0
28/05:30pm 24.1 22.0 13.6 52 6.1 SE 17 22 9 12 1011.8 1011.8 0.0
28/05:00pm 25.2 22.6 13.1 47 7.0 ESE 19 26 10 14 1011.6 1011.6 0.0
28/04:30pm 25.9 22.7 12.0 42 8.0 ESE 20 28 11 15 1011.5 1011.5 0.0
28/04:00pm 27.2 23.7 10.8 36 9.3 ESE 20 28 11 15 1011.2 1011.2 0.0
28/03:30pm 27.2 23.3 9.5 33 9.8 ESE 20 30 11 16 1010.9 1010.9 0.0
28/03:00pm 27.8 24.1 9.6 32 10.1 ESE 19 24 10 13 1011.2 1011.2 0.0
28/02:30pm 29.0 25.9 10.2 31 10.6 E 17 28 9 15 1011.4 1011.4 0.0
28/02:00pm 28.6 25.6 9.3 30 10.7 E 15 24 8 13 1011.9 1011.9 0.0
28/01:30pm 28.6 26.4 13.3 39 9.1 ESE 17 26 9 14 1012.4 1012.4 0.0
28/01:00pm 28.2 26.1 14.8 44 8.1 ESE 19 28 10 15 1013.0 1013.0 0.0
28/12:30pm 27.2 25.3 14.2 44 7.8 E 17 24 9 13 1013.4 1013.4 0.0
28/12:00pm 27.6 26.5 15.3 47 7.5 E 15 24 8 13 1013.7 1013.7 0.0
28/11:30am 28.1 27.4 17.3 52 6.8 ESE 17 26 9 14 1014.3 1014.3 0.0
28/11:00am 27.3 26.8 16.9 53 6.5 E 15 24 8 13 1014.8 1014.8 0.0
28/10:30am 26.8 25.8 16.7 54 6.3 ESE 17 24 9 13 1015.4 1015.4 0.0
28/10:00am 27.3 26.7 17.5 55 6.2 ESE 17 32 9 17 1015.6 1015.6 0.0
28/09:30am 26.0 25.0 16.5 55 5.9 ESE 17 26 9 14 1015.7 1015.7 0.0
28/09:00am 24.8 23.6 16.2 58 5.3 ESE 17 22 9 12 1015.6 1015.6 0.0
28/08:30am 24.7 25.5 18.2 67 4.1 ESE 11 19 6 10 1015.6 1015.6 0.0
28/08:00am 23.5 24.0 18.4 73 3.2 S 13 19 7 10 1015.4 1015.4 0.0
28/07:30am 20.8 22.2 16.4 76 2.7 SSW 4 9 2 5 1015.1 1015.1 0.0
28/07:00am 18.6 20.5 15.8 84 1.7 CALM 0 0 0 0 1014.9 1014.9 0.0
28/06:30am 16.7 17.6 15.2 91 0.9 WSW 4 7 2 4 1014.5 1014.5 0.0
28/06:00am 15.9 17.0 14.6 92 0.7 SW 2 7 1 4 1014.2 1014.2 0.0
28/05:30am 16.3 18.1 15.5 95 0.5 CALM 0 0 0 0 1013.8 1013.8 0.0
28/05:00am 16.5 18.5 15.9 96 0.4 CALM 0 0 0 0 1013.5 1013.5 0.0
28/04:30am 16.3 17.4 15.5 95 0.5 WSW 4 6 2 3 1013.1 1013.1 0.0
28/04:00am 17.1 18.0 16.5 96 0.4 WSW 7 9 4 5 1013.0 1013.0 0.0
28/03:30am 17.0 18.0 16.4 96 0.4 SSW 6 7 3 4 1012.9 1012.9 0.0
28/03:00am 16.8 16.8 16.2 96 0.4 SSW 11 13 6 7 1013.1 1013.1 0.0
28/02:30am 16.6 18.5 15.8 95 0.5 CALM 0 0 0 0 1012.8 1012.8 0.0
28/02:00am 17.1 19.1 16.1 94 0.6 CALM 0 0 0 0 1013.1 1013.1 0.0
28/01:30am 17.8 20.2 17.0 95 0.5 CALM 0 0 0 0 1013.7 1013.7 0.0
28/01:00am 17.7 20.1 16.9 95 0.5 CALM 0 0 0 0 1014.1 1014.1 0.0
28/12:30am 17.8 20.2 17.0 95 0.5 CALM 0 0 0 0 1014.1 1014.1 0.0
28/12:00am 18.5 21.0 17.2 92 0.8 CALM 0 0 0 0 1014.0 1014.0 0.0
 
Date/Time
EST
Temp
°C
App
Temp
°C
Dew
Point
°C
Rel
Hum
%
Delta-T
°C
Wind Press
QNH
hPa
Press
MSL
hPa
Rain since
9am
mm
Dir  Spd
km/h
Gust
km/h
Spd
kts
Gust
kts
27/11:30pm 19.2 21.2 17.9 92 0.8 S 4 6 2 3 1014.1 1014.1 0.0
27/11:00pm 19.4 21.8 17.9 91 0.9 S 2 6 1 3 1014.3 1014.3 0.0
27/10:30pm 19.7 21.8 18.0 90 1.0 SW 4 6 2 3 1014.4 1014.4 0.0
27/10:00pm 19.8 20.9 18.1 90 1.1 SSW 9 13 5 7 1014.4 1014.4 0.0
27/09:30pm 20.5 23.6 18.6 89 1.2 CALM 0 0 0 0 1014.7 1014.7 0.0
27/09:00pm 20.4 22.3 18.5 89 1.2 W 6 9 3 5 1014.3 1014.3 0.0
27/08:30pm 20.8 22.3 18.9 89 1.2 SW 9 13 5 7 1014.6 1014.6 0.0
27/08:00pm 21.5 23.7 19.1 86 1.5 SW 6 7 3 4 1014.2 1014.2 0.0
27/07:30pm 21.9 23.7 19.5 86 1.5 SE 9 13 5 7 1014.0 1014.0 0.0
27/07:00pm 22.3 24.1 19.5 84 1.8 SE 9 13 5 7 1014.0 1014.0 0.0
27/06:30pm 23.3 24.2 20.1 82 2.1 SE 15 22 8 12 1013.4 1013.4 0.0
27/06:00pm 23.8 23.5 19.5 77 2.8 SE 20 26 11 14 1012.9 1012.9 0.0
27/05:30pm 25.2 24.7 18.6 67 4.2 SE 19 24 10 13 1012.4 1012.4 0.0
27/05:00pm 26.3 24.4 17.6 58 5.5 SE 24 32 13 17 1011.8 1011.8 0.0
27/04:30pm 27.1 24.9 17.0 54 6.3 ESE 24 30 13 16 1011.4 1011.4 0.0
27/04:00pm 27.8 24.4 15.8 48 7.4 SE 28 37 15 20 1011.2 1011.2 0.0
27/03:30pm 29.1 25.5 14.1 40 9.0 ESE 26 35 14 19 1010.8 1010.8 0.0
27/03:00pm 30.9 26.6 10.8 29 11.6 ESE 24 33 13 18 1010.4 1010.4 0.0
27/02:30pm 31.4 27.2 11.2 29 11.7 SE 24 32 13 17 1010.7 1010.7 0.0
27/02:00pm 31.6 27.5 8.6 24 12.8 ESE 20 30 11 16 1011.0 1011.0 0.0
27/01:30pm 31.7 28.4 11.0 28 12.0 ESE 19 26 10 14 1011.2 1011.2 0.0
27/01:00pm 31.4 28.2 11.2 29 11.7 E 19 28 10 15 1011.6 1011.6 0.0
27/12:30pm 33.0 32.1 13.6 31 11.8 E 11 20 6 11 1011.9 1011.9 0.0
27/12:00pm 31.7 30.2 13.0 32 11.2 E 13 20 7 11 1012.7 1012.7 0.0
27/11:30am 31.5 31.3 13.7 33 10.7 NNE 7 13 4 7 1013.3 1013.3 0.0
27/11:00am 30.3 30.0 12.7 34 10.4 NW 6 11 3 6 1013.6 1013.6 0.0
27/10:30am 29.9 28.9 12.3 33 10.3 SW 9 17 5 9 1014.3 1014.3 0.0
27/10:00am 28.0 28.3 15.0 45 7.9 WSW 7 13 4 7 1014.8 1014.8 0.0
27/09:30am 26.7 27.6 16.6 54 6.3 NW 7 13 4 7 1015.2 1015.2 0.0
27/09:00am 25.3 27.8 19.9 72 3.5 WNW 6 9 3 5 1015.5 1015.5 0.0
27/08:30am 23.5 25.9 20.0 81 2.3 N 7 9 4 5 1015.6 1015.6 0.0
27/08:00am 20.6 23.9 19.1 91 0.9 CALM 0 6 0 3 1015.5 1015.5 0.0
27/07:30am 19.1 22.2 18.6 97 0.3 CALM 0 0 0 0 1015.2 1015.2 0.0
27/07:10am 18.5 21.1 18.3 99 0.1 WNW 2 7 1 4 1015.1 1015.1 0.0
27/07:02am 18.1 20.9 17.9 99 0.1 CALM 0 0 0 0 1015.1 1015.1 0.0
27/07:00am 17.8 20.4 17.6 99 0.1 CALM 0 0 0 0 1015.1 1015.1 0.0
27/06:30am 16.6 18.4 16.4 99 0.1 SW 2 6 1 3 1014.7 1014.7 0.0
27/06:00am 15.9 17.0 15.7 99 0.1 SW 4 6 2 3 1014.3 1014.3 0.0
27/05:30am 15.6 16.2 15.3 98 0.2 NNW 6 6 3 3 1014.0 1014.0 0.0
27/05:00am 15.7 16.3 15.4 98 0.2 NNW 6 7 3 4 1013.8 1013.8 0.0
27/04:54am 15.1 15.9 14.8 98 0.2 NNW 4 7 2 4 1013.9 1013.9 0.0
27/04:30am 15.4 16.7 15.1 98 0.2 NNE 2 6 1 3 1013.5 1013.5 0.0
27/04:00am 15.7 17.0 15.2 97 0.3 S 2 6 1 3 1013.2 1013.2 0.0
27/03:55am 15.5 16.0 15.0 97 0.3 S 6 9 3 5 1013.2 1013.2 0.0
27/03:43am 16.2 18.2 15.9 98 0.2 CALM 0 0 0 0 1013.2 1013.2 0.0
27/03:30am 16.1 17.9 15.6 97 0.3 CALM 0 0 0 0 1013.1 1013.1 0.0
27/03:00am 16.4 18.4 15.9 97 0.3 CALM 0 0 0 0 1013.3 1013.3 0.0
27/02:30am 16.5 18.5 15.9 96 0.4 CALM 0 0 0 0 1013.2 1013.2 0.0
27/02:09am 16.7 18.7 16.1 96 0.4 CALM 0 0 0 0 1013.3 1013.3 0.0
27/02:00am 16.5 18.5 15.9 96 0.4 CALM 0 0 0 0 1013.4 1013.4 0.0
27/01:39am 16.8 18.9 16.2 96 0.4 CALM 0 0 0 0 1013.5 1013.5 0.0
27/01:30am 16.9 19.0 16.3 96 0.4 CALM 0 0 0 0 1013.5 1013.5 0.0
27/01:21am 16.9 18.9 16.1 95 0.5 CALM 0 4 0 2 1013.5 1013.5 0.0
27/01:00am 17.3 18.7 16.5 95 0.5 SW 4 9 2 5 1013.8 1013.8 0.0
27/12:30am 17.8 19.1 17.0 95 0.5 SW 6 7 3 4 1014.2 1014.2 0.0
27/12:00am 18.2 19.6 17.4 95 0.5 SW 6 9 3 5 1014.6 1014.6 0.0
 
Date/Time
EST
Temp
°C
App
Temp
°C
Dew
Point
°C
Rel
Hum
%
Delta-T
°C
Wind Press
QNH
hPa
Press
MSL
hPa
Rain since
9am
mm
Dir  Spd
km/h
Gust
km/h
Spd
kts
Gust
kts
26/11:58pm 18.4 20.0 17.8 96 0.4 WSW 6 7 3 4 1014.5 1014.5 0.0
26/11:43pm 18.2 20.0 17.4 95 0.5 WSW 4 6 2 3 1014.6 1014.6 0.0
26/11:30pm 18.1 20.5 17.1 94 0.6 CALM 0 0 0 0 1014.6 1014.6 0.0
26/11:00pm 19.2 22.1 18.2 94 0.6 CALM 0 0 0 0 1014.7 1014.7 0.0
26/10:30pm 19.3 22.1 18.0 92 0.8 CALM 0 0 0 0 1014.6 1014.6 0.0
26/10:00pm 19.4 21.5 18.1 92 0.8 SSW 4 9 2 5 1014.5 1014.5 0.0
26/09:30pm 19.6 20.8 18.3 92 0.8 SSW 9 9 5 5 1014.5 1014.5 0.0
26/09:00pm 19.9 21.2 18.4 91 0.9 SSW 9 9 5 5 1014.4 1014.4 0.0
26/08:30pm 20.2 21.7 18.1 88 1.3 SSW 7 9 4 5 1014.3 1014.3 0.0
26/08:00pm 21.2 23.3 18.9 87 1.4 S 6 9 3 5 1014.0 1014.0 0.0
26/07:30pm 21.4 22.9 18.8 85 1.6 SE 9 13 5 7 1013.5 1013.5 0.0
26/07:00pm 22.2 23.2 19.4 84 1.8 SE 13 17 7 9 1013.0 1013.0 0.0
26/06:30pm 22.8 23.5 19.6 82 2.0 SE 15 19 8 10 1012.5 1012.5 0.0
26/06:00pm 23.4 23.5 19.1 77 2.7 SE 17 24 9 13 1012.0 1012.0 0.0
26/05:30pm 24.5 23.9 18.9 71 3.6 SE 20 26 11 14 1011.5 1011.5 0.0
26/05:00pm 25.7 23.7 17.4 60 5.2 SE 24 32 13 17 1011.0 1011.0 0.0
26/04:30pm 26.3 24.6 17.1 57 5.7 ESE 22 30 12 16 1010.7 1010.7 0.0
26/04:00pm 27.0 25.2 16.9 54 6.3 ESE 22 32 12 17 1010.3 1010.3 0.0
26/03:30pm 27.8 25.3 17.0 51 6.8 SE 26 33 14 18 1010.3 1010.3 0.0
26/03:00pm 28.1 24.9 15.4 46 7.8 ESE 26 33 14 18 1010.3 1010.3 0.0
26/02:30pm 28.1 24.8 16.1 48 7.4 ESE 28 37 15 20 1010.4 1010.4 0.0
26/02:00pm 28.9 24.7 14.7 42 8.6 ESE 30 39 16 21 1010.5 1010.5 0.0
26/01:30pm 29.6 26.2 13.8 38 9.5 ESE 24 35 13 19 1010.8 1010.8 0.0
26/01:00pm 30.7 28.0 13.5 35 10.3 ESE 20 33 11 18 1011.1 1011.1 0.0
26/12:30pm 30.7 27.6 12.1 32 10.9 E 20 26 11 14 1011.6 1011.6 0.0
26/12:00pm 29.8 26.6 11.8 33 10.5 E 20 30 11 16 1012.1 1012.1 0.0
26/11:30am 29.4 26.3 12.3 34 10.0 E 20 30 11 16 1012.5 1012.5 0.0
26/11:00am 29.4 26.2 11.9 34 10.2 E 20 28 11 15 1012.9 1012.9 0.0
26/10:30am 29.3 26.5 12.7 36 9.8 E 19 28 10 15 1013.2 1013.2 0.0
26/10:00am 29.1 26.9 13.3 37 9.4 ESE 17 24 9 13 1013.4 1013.4 0.0
26/09:30am 28.4 28.0 15.3 45 8.0 E 11 19 6 10 1013.6 1013.6 0.0
26/09:00am 27.6 28.6 19.4 61 5.3 ENE 13 20 7 11 1013.8 1013.8 0.0
26/08:30am 26.5 29.0 20.3 68 4.1 SE 7 11 4 6 1013.7 1013.7 0.0
26/08:00am 25.3 28.3 21.2 78 2.7 S 7 11 4 6 1013.7 1013.7 0.0
26/07:30am 23.3 27.7 21.4 89 1.3 CALM 0 0 0 0 1013.4 1013.4 0.0
26/07:00am 22.0 26.0 21.3 96 0.5 NNW 2 6 1 3 1012.9 1012.9 0.0
26/06:42am 21.1 23.9 20.4 96 0.5 NW 6 9 3 5 1012.7 1012.7 0.0
26/06:30am 20.4 23.2 19.6 95 0.5 WNW 4 9 2 5 1012.5 1012.5 0.0
26/06:03am 20.9 24.3 20.2 96 0.4 NNW 2 6 1 3 1012.2 1012.2 0.0
26/06:00am 21.0 24.1 20.3 96 0.5 NNW 4 6 2 3 1012.2 1012.2 0.0
26/05:30am 20.8 23.2 20.0 95 0.5 NW 7 9 4 5 1011.9 1011.9 0.0
26/05:00am 21.3 23.6 20.6 96 0.5 N 9 11 5 6 1011.6 1011.6 0.0
26/04:30am 21.1 23.8 20.3 95 0.5 NNW 6 9 3 5 1011.1 1011.1 0.0
26/04:00am 21.2 24.0 20.4 95 0.5 NNW 6 9 3 5 1011.0 1011.0 0.0
26/03:30am 21.5 23.5 20.7 95 0.5 NNW 11 13 6 7 1010.8 1010.8 0.0
26/03:00am 21.7 23.4 20.9 95 0.5 N 13 17 7 9 1010.7 1010.7 0.0
26/02:30am 22.0 24.5 21.0 94 0.7 NNW 9 11 5 6 1010.8 1010.8 0.0
26/02:00am 22.1 24.2 20.9 93 0.8 NNW 11 15 6 8 1010.9 1010.9 0.0
26/01:30am 22.5 25.0 21.1 92 0.9 N 9 11 5 6 1011.1 1011.1 0.0
26/01:00am 23.0 25.0 21.5 91 1.0 NNW 13 17 7 9 1011.4 1011.4 0.0
26/12:30am 23.0 24.6 21.5 91 1.0 NNW 15 19 8 10 1011.8 1011.8 0.0
26/12:00am 23.2 24.9 21.6 91 1.1 NNW 15 19 8 10 1012.0 1012.0 0.0
 
Date/Time
EST
Temp
°C
App
Temp
°C
Dew
Point
°C
Rel
Hum
%
Delta-T
°C
Wind Press
QNH
hPa
Press
MSL
hPa
Rain since
9am
mm
Dir  Spd
km/h
Gust
km/h
Spd
kts
Gust
kts
25/11:30pm 23.3 25.4 21.7 91 1.1 NW 13 19 7 10 1012.1 1012.1 0.0
25/11:00pm 23.3 25.4 21.7 91 1.1 NNW 13 17 7 9 1012.1 1012.1 0.0
25/10:30pm 23.3 25.3 21.6 90 1.1 NNW 13 15 7 8 1012.2 1012.2 0.0
25/10:00pm 23.3 25.4 21.7 91 1.1 NNW 13 15 7 8 1012.2 1012.2 0.0
25/09:30pm 23.4 25.9 21.7 90 1.1 NW 11 15 6 8 1012.1 1012.1 0.0
25/09:00pm 23.6 25.8 21.9 90 1.1 NNW 13 19 7 10 1011.8 1011.8 0.0
25/08:30pm 23.6 26.1 21.7 89 1.3 NNW 11 17 6 9 1011.5 1011.5 0.0

Other Formats:

Comma delimited format used in spreadsheet applications
http://www.bom.gov.au/fwo/IDQ60801/IDQ60801.94365.axf

JavaScript Object Notation format (JSON) in row-major order
http://www.bom.gov.au/fwo/IDQ60801/IDQ60801.94365.json